Navigator Spirit — C6WL4 — position and weather

sailwx.info

Track history (hours):
 
Tides and Currents Weather Stations Pressure Air Temp Water Temp Dewpoint Dewpoint Depression Visibility Wind Speed Wind Dir Waves Ship Positions

Navigator Spirit

Last reported at 2015-Apr-04 21:31 UTC. Time now 2015-Apr-19 21:04 UTC.
Position N 27°44' W 016°27'.
Warning: this ship's position is 14 days out of date.

Length 241 m; draft 9.6 m.

Type: Tanker. MMSI: 309198000.

Date/timePositionNaut miles runAvg speedWind from/ knotsBaromVisibWave heightAir tempDewpointWater temp
2015-Apr-04 21:31N 27°44' W 016°27'3712.6
2015-Apr-04 18:33N 28°16' W 016°05'1312.9
2015-Apr-04 17:33N 28°26' W 015°55'1312.8
2015-Apr-04 16:33N 28°36' W 015°46'1313.0
2015-Apr-04 15:33N 28°46' W 015°37'1313.0
2015-Apr-04 14:34N 28°54' W 015°26'1313.0
2015-Apr-04 13:34N 29°03' W 015°15'1512.1
2015-Apr-04 12:19N 29°13' W 015°02'1211.8
2015-Apr-04 11:17N 29°22' W 014°52'1412.1
2015-Apr-04 10:09N 29°31' W 014°40'712.3
2015-Apr-04 09:33N 29°36' W 014°34'5612.7
2015-Apr-04 05:08N 30°14' W 013°47'3812.9
2015-Apr-04 02:11N 30°40' W 013°14'4612.7
2015-Apr-03 22:33N 31°11' W 012°35'3912.7
2015-Apr-03 19:32N 31°37' W 012°01'1712.6
2015-Apr-03 18:11N 31°49' W 011°47'812.7
2015-Apr-03 17:33N 31°54' W 011°40'1412.8
2015-Apr-03 16:26N 32°04' W 011°28'1112.7
2015-Apr-03 15:32N 32°12' W 011°18'1312.7
2015-Apr-03 14:30N 32°21' W 011°07'1212.7
2015-Apr-03 13:33N 32°29' W 010°56'1312.9
2015-Apr-03 12:33N 32°38' W 010°45'1312.6
2015-Apr-03 11:33N 32°46' W 010°34'1312.5
2015-Apr-03 10:33N 32°54' W 010°23'1212.6
2015-Apr-03 09:33N 33°03' W 010°12'2812.6
2015-Apr-03 07:20N 33°22' W 009°47'7212.3
2015-Apr-03 01:31N 34°10' W 008°44'5212.5
2015-Apr-02 21:23N 34°46' W 007°58'2512.7
2015-Apr-02 19:24N 35°03' W 007°35'11711.9
2015-Apr-02 09:33N 35°60' W 005°29'1111.1
2015-Apr-02 08:33N 36°01' W 005°16'21812.5
2015-Apr-01 15:08N 36°34' W 000°48'712.5
2015-Apr-01 14:33N 36°35' W 000°39'1412.8
2015-Apr-01 13:29N 36°37' W 000°22'4713.8
2015-Apr-01 10:04N 36°44' E 000°36'812.6
2015-Apr-01 09:26N 36°45' E 000°46'1212.8
2015-Apr-01 08:28N 36°48' E 001°01'200 4.9
2015-Mar-30 15:23N 36°47' E 005°11'  
2015-Mar-26 18:29N 36°19' E 013°42'2210.7
2015-Mar-26 16:23N 36°09' E 014°07'1110.6
2015-Mar-26 15:20N 36°05' E 014°20'810.5
2015-Mar-26 14:34N 36°02' E 014°28'19 1.9
2015-Mar-26 04:06N 35°54' E 014°50'0 0.1
2015-Mar-26 03:27N 35°54' E 014°50'0 0.0
2015-Mar-26 02:12N 35°54' E 014°50'0 0.0
2015-Mar-26 01:30N 35°54' E 014°50'0 0.0
2015-Mar-26 00:33N 35°54' E 014°50'0 0.0
2015-Mar-25 23:33N 35°54' E 014°50'0 0.0
2015-Mar-25 22:33N 35°54' E 014°50'0 0.0
2015-Mar-25 21:33N 35°54' E 014°50'  
Track history (hours):
 
Tides and Currents Weather Stations Pressure Air Temp Water Temp Dewpoint Dewpoint Depression Visibility Wind Speed Wind Dir Waves Ship Positions

Navigator Spirit

Last reported at 2015-Apr-04 21:31 UTC. Time now 2015-Apr-19 21:04 UTC.
Position N 27°44' W 016°27'.
Warning: this ship's position is 14 days out of date.

Length 241 m; draft 9.6 m.

Type: Tanker. MMSI: 309198000.

Date/timePositionNaut miles runAvg speedWind from/ knotsBaromVisibWave heightAir tempDewpointWater temp
2015-Apr-04 21:31N 27°44' W 016°27'3712.6
2015-Apr-04 18:33N 28°16' W 016°05'1312.9
2015-Apr-04 17:33N 28°26' W 015°55'1312.8
2015-Apr-04 16:33N 28°36' W 015°46'1313.0
2015-Apr-04 15:33N 28°46' W 015°37'1313.0
2015-Apr-04 14:34N 28°54' W 015°26'1313.0
2015-Apr-04 13:34N 29°03' W 015°15'1512.1
2015-Apr-04 12:19N 29°13' W 015°02'1211.8
2015-Apr-04 11:17N 29°22' W 014°52'1412.1
2015-Apr-04 10:09N 29°31' W 014°40'712.3
2015-Apr-04 09:33N 29°36' W 014°34'5612.7
2015-Apr-04 05:08N 30°14' W 013°47'3812.9
2015-Apr-04 02:11N 30°40' W 013°14'4612.7
2015-Apr-03 22:33N 31°11' W 012°35'3912.7
2015-Apr-03 19:32N 31°37' W 012°01'1712.6
2015-Apr-03 18:11N 31°49' W 011°47'812.7
2015-Apr-03 17:33N 31°54' W 011°40'1412.8
2015-Apr-03 16:26N 32°04' W 011°28'1112.7
2015-Apr-03 15:32N 32°12' W 011°18'1312.7
2015-Apr-03 14:30N 32°21' W 011°07'1212.7
2015-Apr-03 13:33N 32°29' W 010°56'1312.9
2015-Apr-03 12:33N 32°38' W 010°45'1312.6
2015-Apr-03 11:33N 32°46' W 010°34'1312.5
2015-Apr-03 10:33N 32°54' W 010°23'1212.6
2015-Apr-03 09:33N 33°03' W 010°12'2812.6
2015-Apr-03 07:20N 33°22' W 009°47'7212.3
2015-Apr-03 01:31N 34°10' W 008°44'5212.5
2015-Apr-02 21:23N 34°46' W 007°58'2512.7
2015-Apr-02 19:24N 35°03' W 007°35'11711.9
2015-Apr-02 09:33N 35°60' W 005°29'1111.1
2015-Apr-02 08:33N 36°01' W 005°16'21812.5
2015-Apr-01 15:08N 36°34' W 000°48'712.5
2015-Apr-01 14:33N 36°35' W 000°39'1412.8
2015-Apr-01 13:29N 36°37' W 000°22'4713.8
2015-Apr-01 10:04N 36°44' E 000°36'812.6
2015-Apr-01 09:26N 36°45' E 000°46'1212.8
2015-Apr-01 08:28N 36°48' E 001°01'200 4.9
2015-Mar-30 15:23N 36°47' E 005°11'  
2015-Mar-26 18:29N 36°19' E 013°42'2210.7
2015-Mar-26 16:23N 36°09' E 014°07'1110.6
2015-Mar-26 15:20N 36°05' E 014°20'810.5
2015-Mar-26 14:34N 36°02' E 014°28'19 1.9
2015-Mar-26 04:06N 35°54' E 014°50'0 0.1
2015-Mar-26 03:27N 35°54' E 014°50'0 0.0
2015-Mar-26 02:12N 35°54' E 014°50'0 0.0
2015-Mar-26 01:30N 35°54' E 014°50'0 0.0
2015-Mar-26 00:33N 35°54' E 014°50'0 0.0
2015-Mar-25 23:33N 35°54' E 014°50'0 0.0
2015-Mar-25 22:33N 35°54' E 014°50'0 0.0
2015-Mar-25 21:33N 35°54' E 014°50'  

Dump ship's entire track history